createdAt,value
2022-10-05T00:00:05.946Z,11.93
2022-10-05T00:02:33.228Z,12.00
2022-10-05T00:04:59.859Z,11.75
2022-10-05T00:07:29.751Z,11.80
2022-10-05T00:10:00.278Z,11.97
2022-10-05T00:12:29.722Z,12.06
2022-10-05T00:15:02.376Z,11.87
2022-10-05T00:17:30.588Z,11.90
2022-10-05T00:19:57.520Z,12.00
2022-10-05T00:22:32.599Z,12.09
2022-10-05T00:25:01.664Z,12.02
2022-10-05T00:27:37.536Z,11.88
2022-10-05T00:30:20.311Z,12.00
2022-10-05T00:32:47.592Z,12.12
2022-10-05T00:35:16.122Z,12.06
2022-10-05T00:37:43.738Z,11.94
2022-10-05T00:40:15.957Z,12.05
2022-10-05T00:43:14.367Z,12.17
2022-10-05T00:45:57.439Z,12.25
2022-10-05T00:48:39.219Z,12.07
2022-10-05T00:51:22.929Z,12.05
2022-10-05T00:54:29.371Z,12.18
2022-10-05T00:56:58.985Z,12.25
2022-10-05T00:59:43.983Z,12.01
2022-10-05T01:02:37.315Z,12.10
2022-10-05T01:05:16.076Z,12.20
2022-10-05T01:07:48.572Z,12.28
2022-10-05T01:10:24.163Z,12.04
2022-10-05T01:13:20.460Z,12.15
2022-10-05T01:16:06.130Z,12.24
2022-10-05T01:18:32.705Z,12.33
2022-10-05T01:21:21.013Z,12.05
2022-10-05T01:24:08.603Z,12.15
2022-10-05T01:27:00.069Z,12.28
2022-10-05T01:29:37.807Z,12.30
2022-10-05T01:32:33.917Z,12.14
2022-10-05T01:35:13.171Z,12.25
2022-10-05T01:37:58.097Z,12.36
2022-10-05T01:40:33.854Z,12.31
2022-10-05T01:43:19.088Z,12.17
2022-10-05T01:46:00.632Z,12.32
2022-10-05T01:48:53.452Z,12.44
2022-10-05T01:51:26.024Z,12.51
2022-10-05T01:54:18.780Z,12.30
2022-10-05T01:57:22.897Z,12.38
2022-10-05T02:00:07.695Z,12.51
2022-10-05T02:02:40.222Z,12.58
2022-10-05T02:05:13.833Z,12.40
2022-10-05T02:07:48.164Z,12.34
2022-10-05T02:10:22.977Z,12.43
2022-10-05T02:12:55.461Z,12.59
2022-10-05T02:15:37.210Z,12.53
2022-10-05T02:18:10.772Z,12.37
2022-10-05T02:20:40.076Z,12.50
2022-10-05T02:23:14.501Z,12.60
2022-10-05T02:25:46.203Z,12.67
2022-10-05T02:28:19.608Z,12.61
2022-10-05T02:30:55.175Z,12.44
2022-10-05T02:33:30.390Z,12.58
2022-10-05T02:36:10.886Z,12.65
2022-10-05T02:39:03.556Z,12.65
2022-10-05T02:41:42.678Z,12.43
2022-10-05T02:44:27.759Z,12.56
2022-10-05T02:46:58.006Z,12.67
2022-10-05T02:49:49.689Z,12.72
2022-10-05T02:52:29.058Z,12.48
2022-10-05T02:55:00.880Z,12.50
2022-10-05T02:57:32.974Z,12.64
2022-10-05T03:00:12.077Z,12.71
2022-10-05T03:02:57.780Z,12.77
2022-10-05T03:05:39.247Z,12.49
2022-10-05T03:08:20.604Z,12.61
2022-10-05T03:11:06.542Z,12.70
2022-10-05T03:13:50.497Z,12.74
2022-10-05T03:16:20.279Z,12.70
2022-10-05T03:19:05.703Z,12.49
2022-10-05T03:21:52.668Z,12.61
2022-10-05T03:25:06.080Z,12.74
2022-10-05T03:27:50.480Z,12.76
2022-10-05T03:30:19.769Z,12.67
2022-10-05T03:32:54.984Z,12.52
2022-10-05T03:35:32.936Z,12.66
2022-10-05T03:38:13.999Z,12.76
2022-10-05T03:40:55.380Z,12.86
2022-10-05T03:43:46.837Z,12.70
2022-10-05T03:46:38.341Z,12.59
2022-10-05T03:49:33.540Z,12.73
2022-10-05T03:52:38.210Z,12.85
2022-10-05T03:55:24.440Z,12.92
2022-10-05T03:57:54.598Z,12.87
2022-10-05T04:00:26.887Z,12.66
2022-10-05T04:03:12.583Z,12.76
2022-10-05T04:05:56.815Z,12.84
2022-10-05T04:08:47.461Z,12.93
2022-10-05T04:11:25.565Z,12.85
2022-10-05T04:14:01.261Z,12.59
2022-10-05T04:16:44.192Z,12.73
2022-10-05T04:19:37.351Z,12.91
2022-10-05T04:22:09.872Z,13.01
2022-10-05T04:24:58.785Z,12.76
2022-10-05T04:27:33.530Z,12.68
2022-10-05T04:30:13.389Z,12.86
2022-10-05T04:32:54.592Z,12.98
2022-10-05T04:35:47.212Z,12.99
2022-10-05T04:38:23.736Z,12.60
2022-10-05T04:40:59.196Z,12.76
2022-10-05T04:44:05.453Z,12.87
2022-10-05T04:47:02.221Z,12.93
2022-10-05T04:49:50.355Z,12.60
2022-10-05T04:52:41.725Z,12.74
2022-10-05T04:55:40.093Z,12.90
2022-10-05T04:58:42.067Z,12.98
2022-10-05T05:01:18.240Z,12.63
2022-10-05T05:04:21.750Z,12.79
2022-10-05T05:07:25.857Z,12.94
2022-10-05T05:10:19.592Z,12.98
2022-10-05T05:13:06.527Z,12.72
2022-10-05T05:15:57.459Z,12.92
2022-10-05T05:18:45.680Z,13.04
2022-10-05T05:21:14.534Z,13.02
2022-10-05T05:23:51.552Z,12.71
2022-10-05T05:26:42.491Z,12.85
2022-10-05T05:29:31.849Z,12.99
2022-10-05T05:32:08.680Z,13.07
2022-10-05T05:35:06.633Z,12.77
2022-10-05T05:37:58.508Z,12.92
2022-10-05T05:40:33.571Z,13.05
2022-10-05T05:43:11.833Z,13.17
2022-10-05T05:45:50.745Z,13.13
2022-10-05T05:48:42.041Z,12.86
2022-10-05T05:51:39.710Z,12.96
2022-10-05T05:54:27.428Z,12.88
2022-10-05T05:57:13.198Z,12.85
2022-10-05T05:59:52.128Z,12.96
2022-10-05T06:02:25.362Z,12.83
2022-10-05T06:05:01.080Z,13.00
2022-10-05T06:07:31.772Z,12.85
2022-10-05T06:10:32.673Z,12.84
2022-10-05T06:13:05.544Z,12.85
2022-10-05T06:15:45.921Z,12.80
2022-10-05T06:18:16.319Z,12.96
2022-10-05T06:20:52.896Z,12.80
2022-10-05T06:23:48.901Z,12.95
2022-10-05T06:26:39.859Z,12.78
2022-10-05T06:29:14.616Z,12.77
2022-10-05T06:32:04.927Z,12.79
2022-10-05T06:34:34.283Z,12.72
2022-10-05T06:37:07.344Z,12.95
2022-10-05T06:39:50.313Z,12.77
2022-10-05T06:42:46.717Z,12.90
2022-10-05T06:45:27.494Z,12.80
2022-10-05T06:47:54.074Z,12.82
2022-10-05T06:50:22.584Z,12.93
2022-10-05T06:53:05.819Z,12.84
2022-10-05T06:55:55.282Z,13.03
2022-10-05T06:58:34.107Z,12.88
2022-10-05T07:01:12.824Z,13.09
2022-10-05T07:03:58.642Z,12.91
2022-10-05T07:06:51.077Z,13.03
2022-10-05T07:09:33.140Z,13.00
2022-10-05T07:12:08.969Z,13.06
2022-10-05T07:15:06.713Z,13.07
2022-10-05T07:17:53.274Z,13.06
2022-10-05T07:20:30.317Z,13.17
2022-10-05T07:22:56.811Z,13.11
2022-10-05T07:25:32.080Z,13.32
2022-10-05T07:28:31.232Z,13.22
2022-10-05T07:31:14.037Z,13.40
2022-10-05T07:33:51.628Z,13.31
2022-10-05T07:36:42.576Z,13.39
2022-10-05T07:39:18.511Z,13.39
2022-10-05T07:41:52.629Z,13.42
2022-10-05T07:44:33.702Z,13.51
2022-10-05T07:47:11.987Z,13.42
2022-10-05T07:49:47.577Z,13.66
2022-10-05T07:52:25.551Z,13.53
2022-10-05T07:55:19.531Z,13.65
2022-10-05T07:58:04.969Z,13.71
2022-10-05T08:01:00.512Z,13.62
2022-10-05T08:03:40.318Z,13.85
2022-10-05T08:06:13.012Z,13.64
2022-10-05T08:08:54.016Z,13.79
2022-10-05T08:11:27.736Z,13.78
2022-10-05T08:14:16.677Z,13.72
2022-10-05T08:16:46.587Z,13.93
2022-10-05T08:19:44.179Z,13.72
2022-10-05T08:22:20.845Z,13.83
2022-10-05T08:25:03.572Z,14.04
2022-10-05T08:27:57.181Z,14.20
2022-10-05T08:30:24.284Z,14.36
2022-10-05T08:32:50.837Z,14.51
2022-10-05T08:35:20.280Z,14.57
2022-10-05T08:37:49.007Z,14.62
2022-10-05T08:40:43.532Z,14.68
2022-10-05T08:43:35.601Z,14.54
2022-10-05T08:46:20.638Z,14.20
2022-10-05T08:49:08.907Z,14.38
2022-10-05T08:52:03.076Z,14.55
2022-10-05T08:55:01.215Z,14.71
2022-10-05T08:57:50.603Z,14.59
2022-10-05T09:00:21.855Z,14.54
2022-10-05T09:03:33.628Z,14.72
2022-10-05T09:06:34.940Z,14.89
2022-10-05T09:09:16.596Z,14.95
2022-10-05T09:11:57.520Z,14.72
2022-10-05T09:14:39.576Z,14.76
2022-10-05T09:17:42.009Z,14.86
2022-10-05T09:20:21.053Z,14.97
2022-10-05T09:23:09.415Z,14.81
2022-10-05T09:25:47.801Z,14.67
2022-10-05T09:28:51.932Z,14.91
2022-10-05T09:31:34.952Z,15.05
2022-10-05T09:34:59.321Z,15.23
2022-10-05T09:37:44.244Z,15.35
2022-10-05T09:40:34.016Z,15.44
2022-10-05T09:43:09.551Z,15.43
2022-10-05T09:45:48.964Z,15.51
2022-10-05T09:48:53.159Z,15.39
2022-10-05T09:51:44.413Z,15.38
2022-10-05T09:54:36.045Z,15.54
2022-10-05T09:57:36.691Z,15.67
2022-10-05T10:00:21.836Z,15.67
2022-10-05T10:02:58.446Z,15.73
2022-10-05T10:05:31.585Z,15.82
2022-10-05T10:08:20.288Z,15.84
2022-10-05T10:10:56.032Z,15.91
2022-10-05T10:13:28.798Z,15.95
2022-10-05T10:16:16.376Z,16.04
2022-10-05T10:19:11.248Z,16.14
2022-10-05T10:22:03.656Z,16.18
2022-10-05T10:25:01.099Z,16.13
2022-10-05T10:27:59.227Z,16.19
2022-10-05T10:30:58.789Z,16.26
2022-10-05T10:33:52.284Z,16.29
2022-10-05T10:37:00.304Z,16.31
2022-10-05T10:39:55.503Z,16.31
2022-10-05T10:42:26.298Z,16.21
2022-10-05T10:45:12.826Z,16.29
2022-10-05T10:48:17.569Z,15.91
2022-10-05T10:50:57.557Z,15.75
2022-10-05T10:53:53.951Z,15.93
2022-10-05T10:56:34.549Z,16.03
2022-10-05T10:59:43.573Z,16.03
2022-10-05T11:02:27.506Z,16.00
2022-10-05T11:05:24.585Z,15.96
2022-10-05T11:08:17.292Z,15.66
2022-10-05T11:11:05.317Z,15.47
2022-10-05T11:14:03.060Z,15.48
2022-10-05T11:16:54.057Z,15.23
2022-10-05T11:19:40.414Z,15.26
2022-10-05T11:22:34.240Z,15.29
2022-10-05T11:25:20.324Z,15.07
2022-10-05T11:27:59.066Z,15.20
2022-10-05T11:30:51.256Z,15.30
2022-10-05T11:33:26.432Z,15.00
2022-10-05T11:36:02.133Z,14.99
2022-10-05T11:38:49.609Z,15.10
2022-10-05T11:41:53.619Z,14.97
2022-10-05T11:44:55.650Z,14.93
2022-10-05T11:47:29.255Z,15.12
2022-10-05T11:49:59.376Z,15.26
2022-10-05T11:52:51.752Z,14.96
2022-10-05T11:55:51.703Z,15.10
2022-10-05T11:58:28.920Z,15.27
2022-10-05T12:00:58.276Z,15.40
2022-10-05T12:03:25.615Z,15.46
2022-10-05T12:06:16.885Z,15.53
2022-10-05T12:09:07.172Z,15.34
2022-10-05T12:11:42.787Z,15.09
2022-10-05T12:14:40.658Z,15.14
2022-10-05T12:17:28.812Z,14.95
2022-10-05T12:20:03.618Z,15.06
2022-10-05T12:22:40.137Z,14.88
2022-10-05T12:25:27.982Z,14.97
2022-10-05T12:27:59.698Z,14.97
2022-10-05T12:30:48.943Z,14.90
2022-10-05T12:33:21.499Z,15.09
2022-10-05T12:36:14.830Z,14.96
2022-10-05T12:39:10.636Z,15.11
2022-10-05T12:42:02.329Z,15.16
2022-10-05T12:45:08.100Z,15.19
2022-10-05T12:47:58.319Z,15.37
2022-10-05T12:50:34.829Z,15.31
2022-10-05T12:53:14.604Z,15.42
2022-10-05T12:55:55.976Z,15.53
2022-10-05T12:58:33.465Z,15.62
2022-10-05T13:01:02.953Z,15.70
2022-10-05T13:03:46.973Z,15.76
2022-10-05T13:06:47.665Z,15.82
2022-10-05T13:09:35.255Z,15.62
2022-10-05T13:12:38.384Z,15.69
2022-10-05T13:15:14.244Z,15.65
2022-10-05T13:18:03.740Z,15.56
2022-10-05T13:20:35.417Z,15.54
2022-10-05T13:23:13.955Z,15.34
2022-10-05T13:26:01.292Z,15.24
2022-10-05T13:28:42.439Z,15.24
2022-10-05T13:31:34.504Z,14.94
2022-10-05T13:34:06.838Z,14.96
2022-10-05T13:37:06.604Z,15.00
2022-10-05T13:39:44.120Z,14.78
2022-10-05T13:42:13.483Z,14.77
2022-10-05T13:44:47.361Z,14.89
2022-10-05T13:47:43.219Z,14.75
2022-10-05T13:50:39.192Z,14.66
2022-10-05T13:53:26.917Z,14.67
2022-10-05T13:55:53.568Z,14.64
2022-10-05T13:58:32.963Z,14.52
2022-10-05T14:01:02.801Z,14.61
2022-10-05T14:03:35.075Z,14.68
2022-10-05T14:06:15.781Z,14.64
2022-10-05T14:08:54.574Z,14.49
2022-10-05T14:11:23.875Z,14.57
2022-10-05T14:13:52.910Z,14.68
2022-10-05T14:16:25.689Z,14.71
2022-10-05T14:19:09.044Z,14.49
2022-10-05T14:22:13.103Z,14.50
2022-10-05T14:25:03.133Z,14.59
2022-10-05T14:27:33.521Z,14.61
2022-10-05T14:30:08.009Z,14.49
2022-10-05T14:32:44.399Z,14.37
2022-10-05T14:35:12.963Z,14.46
2022-10-05T14:38:02.843Z,14.56
2022-10-05T14:40:31.745Z,14.53
2022-10-05T14:43:01.671Z,14.42
2022-10-05T14:45:33.471Z,14.46
2022-10-05T14:48:00.310Z,14.53
2022-10-05T14:50:31.407Z,14.55
2022-10-05T14:53:17.288Z,14.42
2022-10-05T14:55:58.988Z,14.47
2022-10-05T14:58:57.060Z,14.57
2022-10-05T15:01:39.225Z,14.58
2022-10-05T15:04:52.365Z,14.44
2022-10-05T15:07:33.421Z,14.48
2022-10-05T15:10:27.066Z,14.58
2022-10-05T15:13:10.635Z,14.54
2022-10-05T15:15:54.832Z,14.43
2022-10-05T15:18:36.495Z,14.53
2022-10-05T15:21:06.372Z,14.63
2022-10-05T15:23:42.932Z,14.68
2022-10-05T15:26:27.834Z,14.58
2022-10-05T15:29:01.826Z,14.45
2022-10-05T15:31:51.552Z,14.55
2022-10-05T15:34:27.059Z,14.61
2022-10-05T15:37:16.239Z,14.65
2022-10-05T15:40:22.794Z,14.52
2022-10-05T15:42:55.284Z,14.51
2022-10-05T15:45:33.310Z,14.60
2022-10-05T15:48:01.748Z,14.66
2022-10-05T15:50:50.857Z,14.68
2022-10-05T15:53:21.447Z,14.47
2022-10-05T15:55:52.656Z,14.50
2022-10-05T15:58:25.830Z,14.58
2022-10-05T16:01:01.055Z,14.62
2022-10-05T16:03:45.948Z,14.62
2022-10-05T16:06:39.549Z,14.60
2022-10-05T16:09:18.091Z,14.61
2022-10-05T16:12:04.217Z,14.67
2022-10-05T16:14:36.838Z,14.68
2022-10-05T16:17:24.761Z,14.73
2022-10-05T16:20:20.712Z,14.70
2022-10-05T16:23:00.981Z,14.68
2022-10-05T16:25:44.114Z,14.68
2022-10-05T16:28:41.591Z,14.72
2022-10-05T16:31:17.841Z,14.69
2022-10-05T16:34:03.194Z,14.66
2022-10-05T16:37:05.251Z,14.68
2022-10-05T16:39:48.664Z,14.70
2022-10-05T16:42:42.292Z,14.74
2022-10-05T16:45:30.555Z,14.77
2022-10-05T16:47:57.245Z,14.80
2022-10-05T16:50:31.707Z,14.81
2022-10-05T16:53:20.879Z,14.79
2022-10-05T16:55:51.836Z,14.84
2022-10-05T16:58:27.794Z,14.86
2022-10-05T17:01:29.040Z,14.85
2022-10-05T17:04:25.486Z,14.84
2022-10-05T17:07:18.524Z,14.81
2022-10-05T17:10:15.648Z,14.80
2022-10-05T17:13:01.351Z,14.73
2022-10-05T17:16:00.830Z,14.71
2022-10-05T17:18:49.508Z,14.71
2022-10-05T17:21:40.480Z,14.76
2022-10-05T17:24:28.735Z,14.74
2022-10-05T17:27:02.980Z,14.76
2022-10-05T17:29:47.739Z,14.78
2022-10-05T17:32:17.279Z,14.79
2022-10-05T17:35:25.549Z,14.83
2022-10-05T17:38:22.757Z,14.82
2022-10-05T17:41:20.274Z,14.81
2022-10-05T17:44:16.261Z,14.80
2022-10-05T17:46:48.403Z,14.82
2022-10-05T17:49:32.907Z,14.88
2022-10-05T17:52:20.626Z,14.92
2022-10-05T17:55:05.365Z,14.96
2022-10-05T17:57:34.020Z,14.96
2022-10-05T18:00:02.397Z,14.97
2022-10-05T18:02:37.056Z,15.00
2022-10-05T18:05:06.763Z,15.00
2022-10-05T18:07:35.601Z,15.02
2022-10-05T18:10:17.117Z,15.02
2022-10-05T18:13:05.860Z,15.05
2022-10-05T18:15:33.048Z,15.03
2022-10-05T18:18:32.869Z,15.03
2022-10-05T18:21:14.771Z,15.00
2022-10-05T18:23:59.400Z,15.00
2022-10-05T18:26:32.129Z,15.03
2022-10-05T18:29:52.460Z,15.00
2022-10-05T18:32:32.184Z,14.96
2022-10-05T18:35:26.083Z,14.96
2022-10-05T18:38:09.713Z,14.94
2022-10-05T18:40:50.979Z,14.94
2022-10-05T18:43:43.793Z,14.93
2022-10-05T18:46:41.697Z,14.93
2022-10-05T18:49:27.058Z,14.88
2022-10-05T18:52:15.373Z,14.84
2022-10-05T18:55:11.265Z,14.86
2022-10-05T18:58:05.405Z,14.77
2022-10-05T19:01:00.392Z,14.78
2022-10-05T19:03:53.023Z,14.73
2022-10-05T19:06:25.096Z,14.76
2022-10-05T19:09:15.253Z,14.72
2022-10-05T19:12:00.485Z,14.71
2022-10-05T19:14:52.959Z,14.68
2022-10-05T19:17:30.501Z,14.65
2022-10-05T19:19:59.650Z,14.64
2022-10-05T19:22:46.051Z,14.66
2022-10-05T19:25:21.699Z,14.70
2022-10-05T19:28:04.451Z,14.72
2022-10-05T19:30:51.534Z,14.71
2022-10-05T19:33:58.253Z,14.72
2022-10-05T19:36:37.062Z,14.71
2022-10-05T19:39:26.223Z,14.73
2022-10-05T19:42:08.759Z,14.75
2022-10-05T19:44:52.373Z,14.74
2022-10-05T19:47:46.693Z,14.75
2022-10-05T19:50:25.713Z,14.76
2022-10-05T19:53:11.156Z,14.77
2022-10-05T19:55:43.791Z,14.81
2022-10-05T19:58:18.589Z,14.80
2022-10-05T20:00:54.160Z,14.78
2022-10-05T20:03:27.888Z,14.77
2022-10-05T20:05:59.632Z,14.78
2022-10-05T20:08:31.792Z,14.78
2022-10-05T20:11:18.746Z,14.76
2022-10-05T20:13:52.606Z,14.77
2022-10-05T20:16:45.955Z,14.77
2022-10-05T20:19:47.731Z,14.76
2022-10-05T20:22:35.069Z,14.78
2022-10-05T20:25:08.472Z,14.78
2022-10-05T20:27:41.460Z,14.80
2022-10-05T20:30:10.582Z,14.85
2022-10-05T20:32:37.307Z,14.82
2022-10-05T20:35:06.817Z,14.86
2022-10-05T20:37:33.975Z,14.86
2022-10-05T20:40:02.384Z,14.91
2022-10-05T20:42:29.869Z,14.89
2022-10-05T20:44:57.855Z,14.92
2022-10-05T20:47:25.371Z,14.92
2022-10-05T20:49:54.487Z,14.91
2022-10-05T20:52:22.305Z,14.90
2022-10-05T20:54:53.011Z,14.90
2022-10-05T20:57:24.292Z,14.89
2022-10-05T20:59:51.524Z,14.91
2022-10-05T21:02:21.324Z,14.94
2022-10-05T21:04:49.483Z,14.91
2022-10-05T21:07:18.308Z,14.95
2022-10-05T21:09:46.603Z,14.96
2022-10-05T21:12:16.644Z,14.96
2022-10-05T21:14:43.458Z,14.93
2022-10-05T21:17:11.974Z,14.92
2022-10-05T21:19:39.500Z,14.92
2022-10-05T21:22:07.996Z,14.91
2022-10-05T21:24:36.784Z,14.92
2022-10-05T21:27:04.472Z,14.93
2022-10-05T21:29:32.171Z,14.93
2022-10-05T21:31:58.777Z,14.93
2022-10-05T21:34:25.597Z,14.90
2022-10-05T21:36:52.208Z,14.91
2022-10-05T21:39:19.725Z,14.91
2022-10-05T21:41:49.635Z,14.90
2022-10-05T21:44:18.963Z,14.90
2022-10-05T21:46:46.549Z,14.91
2022-10-05T21:49:17.483Z,14.89
2022-10-05T21:51:46.289Z,14.88
2022-10-05T21:54:17.354Z,14.91
2022-10-05T21:56:48.379Z,14.92
2022-10-05T21:59:18.913Z,14.90
2022-10-05T22:01:48.081Z,14.89
2022-10-05T22:04:15.157Z,14.88
2022-10-05T22:06:43.932Z,14.91
2022-10-05T22:09:10.981Z,14.97
2022-10-05T22:11:37.996Z,14.99
2022-10-05T22:14:04.720Z,14.96
2022-10-05T22:16:34.868Z,14.96
2022-10-05T22:19:06.306Z,14.95
2022-10-05T22:21:37.921Z,14.91
2022-10-05T22:24:04.800Z,14.91
2022-10-05T22:26:31.629Z,14.93
2022-10-05T22:28:58.682Z,14.97
2022-10-05T22:31:25.983Z,14.97
2022-10-05T22:33:52.603Z,14.94
2022-10-05T22:36:19.996Z,14.95
2022-10-05T22:38:47.700Z,14.92
2022-10-05T22:41:16.486Z,14.89
2022-10-05T22:43:45.089Z,14.95
2022-10-05T22:46:13.356Z,14.96
2022-10-05T22:48:42.250Z,14.96
2022-10-05T22:51:08.980Z,14.93
2022-10-05T22:53:35.780Z,14.94
2022-10-05T22:56:07.370Z,14.91
2022-10-05T22:58:34.138Z,14.85
2022-10-05T23:01:03.761Z,14.80
2022-10-05T23:03:32.758Z,14.77
2022-10-05T23:06:03.202Z,14.74
2022-10-05T23:08:34.366Z,14.74
2022-10-05T23:11:15.525Z,14.74
2022-10-05T23:13:42.720Z,14.71
2022-10-05T23:16:13.956Z,14.71
2022-10-05T23:18:41.205Z,14.72
2022-10-05T23:21:09.807Z,14.72
2022-10-05T23:23:40.988Z,14.68
2022-10-05T23:26:09.880Z,14.67
2022-10-05T23:28:36.565Z,14.67
2022-10-05T23:31:08.120Z,14.69
2022-10-05T23:33:35.411Z,14.70
2022-10-05T23:36:08.696Z,14.68
2022-10-05T23:38:36.096Z,14.75
2022-10-05T23:41:03.245Z,14.72
2022-10-05T23:43:30.204Z,14.72
2022-10-05T23:45:56.796Z,14.71
2022-10-05T23:48:23.485Z,14.71
2022-10-05T23:50:50.308Z,14.71
2022-10-05T23:53:17.907Z,14.68
2022-10-05T23:55:44.491Z,14.69
2022-10-05T23:58:11.745Z,14.67
